sensor_id;sensor_type;location;lat;lon;timestamp;P1;durP1;ratioP1;P2;durP2;ratioP2
40501;SDS011;29631;49.168;9.848;2023-02-22T00:00:40;5.90;;;5.32;;
40501;SDS011;29631;49.168;9.848;2023-02-22T00:03:08;6.13;;;5.13;;
40501;SDS011;29631;49.168;9.848;2023-02-22T00:05:34;5.78;;;5.28;;
40501;SDS011;29631;49.168;9.848;2023-02-22T00:08:03;5.60;;;5.03;;
40501;SDS011;29631;49.168;9.848;2023-02-22T00:10:33;5.45;;;4.93;;
40501;SDS011;29631;49.168;9.848;2023-02-22T00:13:03;5.72;;;5.22;;
40501;SDS011;29631;49.168;9.848;2023-02-22T00:15:32;6.00;;;5.00;;
40501;SDS011;29631;49.168;9.848;2023-02-22T00:17:58;5.10;;;4.70;;
40501;SDS011;29631;49.168;9.848;2023-02-22T00:20:25;5.20;;;4.80;;
40501;SDS011;29631;49.168;9.848;2023-02-22T00:22:51;5.18;;;4.78;;
40501;SDS011;29631;49.168;9.848;2023-02-22T00:25:19;5.15;;;4.65;;
40501;SDS011;29631;49.168;9.848;2023-02-22T00:27:48;5.57;;;4.97;;
40501;SDS011;29631;49.168;9.848;2023-02-22T00:30:21;6.05;;;5.22;;
40501;SDS011;29631;49.168;9.848;2023-02-22T00:32:50;5.82;;;5.22;;
40501;SDS011;29631;49.168;9.848;2023-02-22T00:35:19;6.18;;;4.88;;
40501;SDS011;29631;49.168;9.848;2023-02-22T00:37:46;5.90;;;5.43;;
40501;SDS011;29631;49.168;9.848;2023-02-22T00:40:15;5.40;;;4.90;;
40501;SDS011;29631;49.168;9.848;2023-02-22T00:42:44;6.07;;;5.22;;
40501;SDS011;29631;49.168;9.848;2023-02-22T00:45:10;6.35;;;4.80;;
40501;SDS011;29631;49.168;9.848;2023-02-22T00:47:37;7.18;;;5.00;;
40501;SDS011;29631;49.168;9.848;2023-02-22T00:50:03;5.88;;;5.38;;
40501;SDS011;29631;49.168;9.848;2023-02-22T00:52:29;5.47;;;4.97;;
40501;SDS011;29631;49.168;9.848;2023-02-22T00:54:55;5.05;;;4.65;;
40501;SDS011;29631;49.168;9.848;2023-02-22T00:57:22;5.97;;;4.95;;
40501;SDS011;29631;49.168;9.848;2023-02-22T00:59:49;5.45;;;4.95;;
40501;SDS011;29631;49.168;9.848;2023-02-22T01:02:15;5.43;;;5.00;;
40501;SDS011;29631;49.168;9.848;2023-02-22T01:04:41;4.75;;;4.45;;
40501;SDS011;29631;49.168;9.848;2023-02-22T01:07:07;5.03;;;4.63;;
40501;SDS011;29631;49.168;9.848;2023-02-22T01:09:33;4.93;;;4.53;;
40501;SDS011;29631;49.168;9.848;2023-02-22T01:11:59;5.13;;;4.63;;
40501;SDS011;29631;49.168;9.848;2023-02-22T01:14:27;4.85;;;4.45;;
40501;SDS011;29631;49.168;9.848;2023-02-22T01:16:53;5.47;;;4.88;;
40501;SDS011;29631;49.168;9.848;2023-02-22T01:19:20;5.10;;;4.70;;
40501;SDS011;29631;49.168;9.848;2023-02-22T01:21:47;5.00;;;4.55;;
40501;SDS011;29631;49.168;9.848;2023-02-22T01:24:14;5.35;;;4.53;;
40501;SDS011;29631;49.168;9.848;2023-02-22T01:26:41;5.13;;;4.40;;
40501;SDS011;29631;49.168;9.848;2023-02-22T01:29:12;5.07;;;4.68;;
40501;SDS011;29631;49.168;9.848;2023-02-22T01:31:43;5.20;;;4.75;;
40501;SDS011;29631;49.168;9.848;2023-02-22T01:34:18;5.15;;;4.78;;
40501;SDS011;29631;49.168;9.848;2023-02-22T01:36:46;4.95;;;4.55;;
40501;SDS011;29631;49.168;9.848;2023-02-22T01:39:12;5.93;;;4.75;;
40501;SDS011;29631;49.168;9.848;2023-02-22T01:41:38;5.38;;;4.88;;
40501;SDS011;29631;49.168;9.848;2023-02-22T01:44:20;4.93;;;4.45;;
40501;SDS011;29631;49.168;9.848;2023-02-22T01:46:59;4.15;;;3.88;;
40501;SDS011;29631;49.168;9.848;2023-02-22T01:49:28;4.53;;;4.22;;
40501;SDS011;29631;49.168;9.848;2023-02-22T01:52:13;4.35;;;4.05;;
40501;SDS011;29631;49.168;9.848;2023-02-22T01:54:44;5.18;;;4.68;;
40501;SDS011;29631;49.168;9.848;2023-02-22T01:57:20;5.75;;;4.75;;
40501;SDS011;29631;49.168;9.848;2023-02-22T01:59:54;4.82;;;4.45;;
40501;SDS011;29631;49.168;9.848;2023-02-22T02:02:33;4.80;;;4.45;;
40501;SDS011;29631;49.168;9.848;2023-02-22T02:05:01;5.18;;;4.78;;
40501;SDS011;29631;49.168;9.848;2023-02-22T02:07:32;5.47;;;5.05;;
40501;SDS011;29631;49.168;9.848;2023-02-22T02:10:01;5.25;;;4.85;;
40501;SDS011;29631;49.168;9.848;2023-02-22T02:12:31;5.80;;;5.30;;
40501;SDS011;29631;49.168;9.848;2023-02-22T02:15:20;5.60;;;5.15;;
40501;SDS011;29631;49.168;9.848;2023-02-22T02:17:56;5.22;;;4.82;;
40501;SDS011;29631;49.168;9.848;2023-02-22T02:20:43;5.68;;;5.28;;
40501;SDS011;29631;49.168;9.848;2023-02-22T02:27:07;4.35;;;4.05;;
40501;SDS011;29631;49.168;9.848;2023-02-22T02:29:42;4.82;;;4.43;;
40501;SDS011;29631;49.168;9.848;2023-02-22T02:38:28;5.05;;;4.65;;
40501;SDS011;29631;49.168;9.848;2023-02-22T02:41:34;5.05;;;4.32;;
40501;SDS011;29631;49.168;9.848;2023-02-22T02:46:45;5.22;;;4.90;;
40501;SDS011;29631;49.168;9.848;2023-02-22T02:49:26;5.53;;;5.13;;
40501;SDS011;29631;49.168;9.848;2023-02-22T02:51:59;5.05;;;4.57;;
40501;SDS011;29631;49.168;9.848;2023-02-22T02:54:28;5.35;;;4.95;;
40501;SDS011;29631;49.168;9.848;2023-02-22T02:56:55;5.60;;;5.10;;
40501;SDS011;29631;49.168;9.848;2023-02-22T02:59:26;5.88;;;4.78;;
40501;SDS011;29631;49.168;9.848;2023-02-22T03:16:51;5.07;;;4.70;;
40501;SDS011;29631;49.168;9.848;2023-02-22T03:19:26;5.38;;;4.97;;
40501;SDS011;29631;49.168;9.848;2023-02-22T03:22:25;5.10;;;4.70;;
40501;SDS011;29631;49.168;9.848;2023-02-22T03:25:09;4.80;;;4.40;;
40501;SDS011;29631;49.168;9.848;2023-02-22T03:27:51;4.97;;;4.57;;
40501;SDS011;29631;49.168;9.848;2023-02-22T03:33:08;5.18;;;4.70;;
40501;SDS011;29631;49.168;9.848;2023-02-22T03:35:50;5.35;;;4.88;;
40501;SDS011;29631;49.168;9.848;2023-02-22T03:38:26;4.82;;;4.43;;
40501;SDS011;29631;49.168;9.848;2023-02-22T03:40:57;4.78;;;4.45;;
40501;SDS011;29631;49.168;9.848;2023-02-22T03:43:28;5.03;;;4.47;;
40501;SDS011;29631;49.168;9.848;2023-02-22T03:46:06;5.45;;;4.35;;
40501;SDS011;29631;49.168;9.848;2023-02-22T03:48:37;4.22;;;3.92;;
40501;SDS011;29631;49.168;9.848;2023-02-22T03:51:36;4.70;;;4.22;;
40501;SDS011;29631;49.168;9.848;2023-02-22T03:54:03;4.50;;;4.20;;
40501;SDS011;29631;49.168;9.848;2023-02-22T03:56:32;5.03;;;4.60;;
40501;SDS011;29631;49.168;9.848;2023-02-22T03:59:04;4.55;;;4.25;;
40501;SDS011;29631;49.168;9.848;2023-02-22T04:01:33;4.65;;;4.35;;
40501;SDS011;29631;49.168;9.848;2023-02-22T04:03:59;5.78;;;4.50;;
40501;SDS011;29631;49.168;9.848;2023-02-22T04:06:26;5.05;;;4.65;;
40501;SDS011;29631;49.168;9.848;2023-02-22T04:08:53;4.55;;;4.22;;
40501;SDS011;29631;49.168;9.848;2023-02-22T04:11:19;4.63;;;4.22;;
40501;SDS011;29631;49.168;9.848;2023-02-22T04:13:45;5.05;;;4.32;;
40501;SDS011;29631;49.168;9.848;2023-02-22T04:16:11;4.57;;;4.28;;
40501;SDS011;29631;49.168;9.848;2023-02-22T04:18:37;4.53;;;4.10;;
40501;SDS011;29631;49.168;9.848;2023-02-22T04:21:02;4.43;;;4.07;;
40501;SDS011;29631;49.168;9.848;2023-02-22T04:23:28;4.53;;;4.13;;
40501;SDS011;29631;49.168;9.848;2023-02-22T04:25:54;3.92;;;3.67;;
40501;SDS011;29631;49.168;9.848;2023-02-22T04:28:20;4.60;;;4.15;;
40501;SDS011;29631;49.168;9.848;2023-02-22T04:30:46;5.00;;;4.60;;
40501;SDS011;29631;49.168;9.848;2023-02-22T04:33:12;4.40;;;4.10;;
40501;SDS011;29631;49.168;9.848;2023-02-22T04:35:38;4.88;;;4.57;;
40501;SDS011;29631;49.168;9.848;2023-02-22T04:38:04;4.43;;;4.13;;
40501;SDS011;29631;49.168;9.848;2023-02-22T04:40:30;4.53;;;4.13;;
40501;SDS011;29631;49.168;9.848;2023-02-22T04:42:56;4.68;;;4.28;;
40501;SDS011;29631;49.168;9.848;2023-02-22T04:45:22;4.65;;;4.35;;
40501;SDS011;29631;49.168;9.848;2023-02-22T04:47:47;4.15;;;3.85;;
40501;SDS011;29631;49.168;9.848;2023-02-22T04:50:13;4.53;;;4.13;;
40501;SDS011;29631;49.168;9.848;2023-02-22T04:52:40;4.65;;;4.25;;
40501;SDS011;29631;49.168;9.848;2023-02-22T04:55:06;5.05;;;4.65;;
40501;SDS011;29631;49.168;9.848;2023-02-22T04:57:32;4.63;;;4.22;;
40501;SDS011;29631;49.168;9.848;2023-02-22T04:59:58;5.00;;;4.60;;
40501;SDS011;29631;49.168;9.848;2023-02-22T05:02:24;4.57;;;4.28;;
40501;SDS011;29631;49.168;9.848;2023-02-22T05:04:49;4.55;;;4.25;;
40501;SDS011;29631;49.168;9.848;2023-02-22T05:07:15;4.95;;;4.55;;
40501;SDS011;29631;49.168;9.848;2023-02-22T05:09:41;3.97;;;3.67;;
40501;SDS011;29631;49.168;9.848;2023-02-22T05:12:08;5.03;;;4.65;;
40501;SDS011;29631;49.168;9.848;2023-02-22T05:14:33;5.00;;;4.68;;
40501;SDS011;29631;49.168;9.848;2023-02-22T05:16:59;4.82;;;4.43;;
40501;SDS011;29631;49.168;9.848;2023-02-22T05:19:27;4.53;;;4.22;;
40501;SDS011;29631;49.168;9.848;2023-02-22T05:21:52;4.65;;;4.25;;
40501;SDS011;29631;49.168;9.848;2023-02-22T05:24:20;4.60;;;4.30;;
40501;SDS011;29631;49.168;9.848;2023-02-22T05:26:46;5.35;;;4.47;;
40501;SDS011;29631;49.168;9.848;2023-02-22T05:29:12;5.13;;;4.63;;
40501;SDS011;29631;49.168;9.848;2023-02-22T05:31:38;4.68;;;4.28;;
40501;SDS011;29631;49.168;9.848;2023-02-22T05:34:05;4.57;;;4.28;;
40501;SDS011;29631;49.168;9.848;2023-02-22T05:36:31;4.30;;;4.00;;
40501;SDS011;29631;49.168;9.848;2023-02-22T05:38:57;5.55;;;4.15;;
40501;SDS011;29631;49.168;9.848;2023-02-22T05:41:23;6.53;;;4.60;;
40501;SDS011;29631;49.168;9.848;2023-02-22T05:43:48;5.40;;;4.90;;
40501;SDS011;29631;49.168;9.848;2023-02-22T05:46:14;4.80;;;4.50;;
40501;SDS011;29631;49.168;9.848;2023-02-22T05:48:40;4.80;;;4.40;;
40501;SDS011;29631;49.168;9.848;2023-02-22T05:51:06;6.10;;;4.95;;
40501;SDS011;29631;49.168;9.848;2023-02-22T05:53:33;5.28;;;4.88;;
40501;SDS011;29631;49.168;9.848;2023-02-22T05:55:59;5.32;;;4.82;;
40501;SDS011;29631;49.168;9.848;2023-02-22T05:58:25;4.93;;;4.53;;
40501;SDS011;29631;49.168;9.848;2023-02-22T06:00:51;4.45;;;4.15;;
40501;SDS011;29631;49.168;9.848;2023-02-22T06:03:17;4.88;;;4.55;;
40501;SDS011;29631;49.168;9.848;2023-02-22T06:05:42;4.75;;;4.35;;
40501;SDS011;29631;49.168;9.848;2023-02-22T06:08:08;4.57;;;4.28;;
40501;SDS011;29631;49.168;9.848;2023-02-22T06:10:35;5.55;;;4.50;;
40501;SDS011;29631;49.168;9.848;2023-02-22T06:13:01;5.80;;;4.57;;
40501;SDS011;29631;49.168;9.848;2023-02-22T06:15:28;4.88;;;4.53;;
40501;SDS011;29631;49.168;9.848;2023-02-22T06:17:54;4.80;;;4.50;;
40501;SDS011;29631;49.168;9.848;2023-02-22T06:20:22;5.40;;;5.00;;
40501;SDS011;29631;49.168;9.848;2023-02-22T06:22:50;5.10;;;4.70;;
40501;SDS011;29631;49.168;9.848;2023-02-22T06:25:19;4.97;;;4.40;;
40501;SDS011;29631;49.168;9.848;2023-02-22T06:27:48;4.70;;;4.30;;
40501;SDS011;29631;49.168;9.848;2023-02-22T06:30:15;5.07;;;4.57;;
40501;SDS011;29631;49.168;9.848;2023-02-22T06:32:45;5.20;;;4.80;;
40501;SDS011;29631;49.168;9.848;2023-02-22T06:35:11;5.90;;;5.40;;
40501;SDS011;29631;49.168;9.848;2023-02-22T06:37:38;4.93;;;4.55;;
40501;SDS011;29631;49.168;9.848;2023-02-22T06:40:04;5.38;;;4.97;;
40501;SDS011;29631;49.168;9.848;2023-02-22T06:42:30;5.28;;;4.88;;
40501;SDS011;29631;49.168;9.848;2023-02-22T06:44:56;5.82;;;5.13;;
40501;SDS011;29631;49.168;9.848;2023-02-22T06:47:22;5.50;;;5.00;;
40501;SDS011;29631;49.168;9.848;2023-02-22T06:49:51;5.80;;;5.28;;
40501;SDS011;29631;49.168;9.848;2023-02-22T06:52:18;5.57;;;4.95;;
40501;SDS011;29631;49.168;9.848;2023-02-22T06:54:44;5.55;;;5.05;;
40501;SDS011;29631;49.168;9.848;2023-02-22T06:57:10;5.28;;;4.85;;
40501;SDS011;29631;49.168;9.848;2023-02-22T06:59:36;5.25;;;4.72;;
40501;SDS011;29631;49.168;9.848;2023-02-22T07:02:02;6.07;;;5.38;;
40501;SDS011;29631;49.168;9.848;2023-02-22T07:04:28;5.43;;;4.95;;
40501;SDS011;29631;49.168;9.848;2023-02-22T07:06:54;5.35;;;4.95;;
40501;SDS011;29631;49.168;9.848;2023-02-22T07:09:20;4.93;;;4.43;;
40501;SDS011;29631;49.168;9.848;2023-02-22T07:11:46;5.47;;;4.97;;
40501;SDS011;29631;49.168;9.848;2023-02-22T07:14:11;5.53;;;5.00;;
40501;SDS011;29631;49.168;9.848;2023-02-22T07:16:37;4.97;;;4.57;;
40501;SDS011;29631;49.168;9.848;2023-02-22T07:19:03;5.30;;;4.90;;
40501;SDS011;29631;49.168;9.848;2023-02-22T07:21:28;5.15;;;4.65;;
40501;SDS011;29631;49.168;9.848;2023-02-22T07:23:55;5.90;;;5.40;;
40501;SDS011;29631;49.168;9.848;2023-02-22T07:26:23;5.32;;;4.93;;
40501;SDS011;29631;49.168;9.848;2023-02-22T07:28:50;5.20;;;4.70;;
40501;SDS011;29631;49.168;9.848;2023-02-22T07:31:16;5.20;;;4.50;;
40501;SDS011;29631;49.168;9.848;2023-02-22T07:33:44;5.20;;;4.80;;
40501;SDS011;29631;49.168;9.848;2023-02-22T07:36:11;4.88;;;4.43;;
40501;SDS011;29631;49.168;9.848;2023-02-22T07:38:38;5.30;;;4.80;;
40501;SDS011;29631;49.168;9.848;2023-02-22T07:41:04;5.13;;;4.72;;
40501;SDS011;29631;49.168;9.848;2023-02-22T07:43:30;4.88;;;4.47;;
40501;SDS011;29631;49.168;9.848;2023-02-22T07:45:57;5.22;;;4.82;;
40501;SDS011;29631;49.168;9.848;2023-02-22T07:48:26;5.50;;;5.00;;
40501;SDS011;29631;49.168;9.848;2023-02-22T07:50:55;4.97;;;4.57;;
40501;SDS011;29631;49.168;9.848;2023-02-22T07:53:23;5.30;;;4.80;;
40501;SDS011;29631;49.168;9.848;2023-02-22T07:55:54;6.38;;;4.82;;
40501;SDS011;29631;49.168;9.848;2023-02-22T07:58:22;5.43;;;4.97;;
40501;SDS011;29631;49.168;9.848;2023-02-22T08:00:51;5.57;;;5.07;;
40501;SDS011;29631;49.168;9.848;2023-02-22T08:03:18;5.32;;;4.93;;
40501;SDS011;29631;49.168;9.848;2023-02-22T08:05:50;5.05;;;4.65;;
40501;SDS011;29631;49.168;9.848;2023-02-22T08:08:21;5.55;;;5.05;;
40501;SDS011;29631;49.168;9.848;2023-02-22T08:10:48;5.18;;;4.72;;
40501;SDS011;29631;49.168;9.848;2023-02-22T08:13:15;5.25;;;4.85;;
40501;SDS011;29631;49.168;9.848;2023-02-22T08:15:42;5.55;;;5.10;;
40501;SDS011;29631;49.168;9.848;2023-02-22T08:18:10;5.18;;;4.78;;
40501;SDS011;29631;49.168;9.848;2023-02-22T08:20:39;5.43;;;5.03;;
40501;SDS011;29631;49.168;9.848;2023-02-22T08:23:07;5.30;;;4.85;;
40501;SDS011;29631;49.168;9.848;2023-02-22T08:25:34;4.93;;;4.43;;
40501;SDS011;29631;49.168;9.848;2023-02-22T08:28:01;4.75;;;4.45;;
40501;SDS011;29631;49.168;9.848;2023-02-22T08:30:30;4.68;;;4.28;;
40501;SDS011;29631;49.168;9.848;2023-02-22T08:32:59;5.03;;;4.53;;
40501;SDS011;29631;49.168;9.848;2023-02-22T08:35:26;5.20;;;4.22;;
40501;SDS011;29631;49.168;9.848;2023-02-22T08:37:55;5.32;;;4.93;;
40501;SDS011;29631;49.168;9.848;2023-02-22T08:40:26;4.88;;;4.47;;
40501;SDS011;29631;49.168;9.848;2023-02-22T08:42:55;4.50;;;4.18;;
40501;SDS011;29631;49.168;9.848;2023-02-22T08:45:21;5.35;;;4.95;;
40501;SDS011;29631;49.168;9.848;2023-02-22T08:47:47;4.43;;;3.92;;
40501;SDS011;29631;49.168;9.848;2023-02-22T08:50:19;5.28;;;4.88;;
40501;SDS011;29631;49.168;9.848;2023-02-22T08:52:49;5.22;;;4.75;;
40501;SDS011;29631;49.168;9.848;2023-02-22T08:55:23;4.78;;;4.38;;
40501;SDS011;29631;49.168;9.848;2023-02-22T08:57:52;4.75;;;4.35;;
40501;SDS011;29631;49.168;9.848;2023-02-22T09:00:18;4.75;;;4.35;;
40501;SDS011;29631;49.168;9.848;2023-02-22T09:02:48;4.50;;;4.20;;
40501;SDS011;29631;49.168;9.848;2023-02-22T09:05:18;4.93;;;4.53;;
40501;SDS011;29631;49.168;9.848;2023-02-22T09:07:44;4.85;;;4.45;;
40501;SDS011;29631;49.168;9.848;2023-02-22T09:10:11;4.68;;;4.38;;
40501;SDS011;29631;49.168;9.848;2023-02-22T09:12:48;4.90;;;4.45;;
40501;SDS011;29631;49.168;9.848;2023-02-22T09:15:19;4.90;;;4.50;;
40501;SDS011;29631;49.168;9.848;2023-02-22T09:17:46;5.28;;;4.72;;
40501;SDS011;29631;49.168;9.848;2023-02-22T09:20:13;4.32;;;4.03;;
40501;SDS011;29631;49.168;9.848;2023-02-22T09:22:42;4.90;;;4.40;;
40501;SDS011;29631;49.168;9.848;2023-02-22T09:25:10;4.85;;;4.47;;
40501;SDS011;29631;49.168;9.848;2023-02-22T09:27:36;5.07;;;4.57;;
40501;SDS011;29631;49.168;9.848;2023-02-22T09:30:04;4.13;;;3.80;;
40501;SDS011;29631;49.168;9.848;2023-02-22T09:32:31;4.45;;;3.85;;
40501;SDS011;29631;49.168;9.848;2023-02-22T09:34:56;4.60;;;4.15;;
40501;SDS011;29631;49.168;9.848;2023-02-22T09:37:22;4.72;;;4.32;;
40501;SDS011;29631;49.168;9.848;2023-02-22T09:39:48;4.80;;;4.40;;
40501;SDS011;29631;49.168;9.848;2023-02-22T09:42:27;5.85;;;4.70;;
40501;SDS011;29631;49.168;9.848;2023-02-22T09:47:44;4.78;;;4.28;;
40501;SDS011;29631;49.168;9.848;2023-02-22T09:50:17;4.10;;;3.80;;
40501;SDS011;29631;49.168;9.848;2023-02-22T09:53:06;4.28;;;4.00;;
40501;SDS011;29631;49.168;9.848;2023-02-22T09:55:53;4.20;;;3.90;;
40501;SDS011;29631;49.168;9.848;2023-02-22T09:58:34;4.13;;;3.83;;
40501;SDS011;29631;49.168;9.848;2023-02-22T10:04:08;4.28;;;3.95;;
40501;SDS011;29631;49.168;9.848;2023-02-22T10:06:42;3.80;;;3.60;;
40501;SDS011;29631;49.168;9.848;2023-02-22T10:09:44;4.28;;;3.88;;
40501;SDS011;29631;49.168;9.848;2023-02-22T10:12:14;4.22;;;3.92;;
40501;SDS011;29631;49.168;9.848;2023-02-22T10:26:56;4.30;;;3.90;;
40501;SDS011;29631;49.168;9.848;2023-02-22T10:29:31;4.22;;;3.92;;
40501;SDS011;29631;49.168;9.848;2023-02-22T10:32:10;4.85;;;4.32;;
40501;SDS011;29631;49.168;9.848;2023-02-22T10:35:02;4.13;;;3.88;;
40501;SDS011;29631;49.168;9.848;2023-02-22T10:37:43;3.40;;;3.05;;
40501;SDS011;29631;49.168;9.848;2023-02-22T10:40:14;3.70;;;3.45;;
40501;SDS011;29631;49.168;9.848;2023-02-22T10:42:44;3.55;;;3.28;;
40501;SDS011;29631;49.168;9.848;2023-02-22T10:47:45;3.95;;;3.65;;
40501;SDS011;29631;49.168;9.848;2023-02-22T10:50:11;3.58;;;3.38;;
40501;SDS011;29631;49.168;9.848;2023-02-22T10:52:39;3.88;;;3.58;;
40501;SDS011;29631;49.168;9.848;2023-02-22T10:55:04;3.30;;;3.10;;
40501;SDS011;29631;49.168;9.848;2023-02-22T10:57:36;3.60;;;3.30;;
40501;SDS011;29631;49.168;9.848;2023-02-22T11:03:02;2.92;;;2.80;;
40501;SDS011;29631;49.168;9.848;2023-02-22T11:05:45;3.08;;;2.78;;
40501;SDS011;29631;49.168;9.848;2023-02-22T11:08:23;3.97;;;3.45;;
40501;SDS011;29631;49.168;9.848;2023-02-22T11:10:55;3.72;;;3.42;;
40501;SDS011;29631;49.168;9.848;2023-02-22T11:15:58;3.30;;;3.10;;
40501;SDS011;29631;49.168;9.848;2023-02-22T11:18:40;3.70;;;3.40;;
40501;SDS011;29631;49.168;9.848;2023-02-22T11:21:07;3.47;;;3.28;;
40501;SDS011;29631;49.168;9.848;2023-02-22T11:23:36;2.97;;;2.78;;
40501;SDS011;29631;49.168;9.848;2023-02-22T11:26:12;3.28;;;3.08;;
40501;SDS011;29631;49.168;9.848;2023-02-22T11:28:43;3.50;;;3.30;;
40501;SDS011;29631;49.168;9.848;2023-02-22T11:36:28;3.15;;;2.95;;
40501;SDS011;29631;49.168;9.848;2023-02-22T11:38:57;3.55;;;3.35;;
40501;SDS011;29631;49.168;9.848;2023-02-22T11:41:31;3.05;;;2.85;;
40501;SDS011;29631;49.168;9.848;2023-02-22T11:46:55;3.10;;;2.90;;
40501;SDS011;29631;49.168;9.848;2023-02-22T11:49:41;3.03;;;2.83;;
40501;SDS011;29631;49.168;9.848;2023-02-22T11:52:18;3.63;;;3.30;;
40501;SDS011;29631;49.168;9.848;2023-02-22T12:00:52;2.72;;;2.53;;
40501;SDS011;29631;49.168;9.848;2023-02-22T12:09:25;3.08;;;2.88;;
40501;SDS011;29631;49.168;9.848;2023-02-22T12:12:09;3.38;;;2.88;;
40501;SDS011;29631;49.168;9.848;2023-02-22T12:17:57;3.00;;;2.80;;
40501;SDS011;29631;49.168;9.848;2023-02-22T12:20:38;2.88;;;2.67;;
40501;SDS011;29631;49.168;9.848;2023-02-22T12:23:24;3.13;;;2.92;;
40501;SDS011;29631;49.168;9.848;2023-02-22T12:26:55;3.00;;;2.80;;
40501;SDS011;29631;49.168;9.848;2023-02-22T12:29:06;3.08;;;2.88;;
40501;SDS011;29631;49.168;9.848;2023-02-22T12:31:41;3.78;;;3.47;;
40501;SDS011;29631;49.168;9.848;2023-02-22T12:34:42;4.05;;;2.90;;
40501;SDS011;29631;49.168;9.848;2023-02-22T12:39:57;3.40;;;3.20;;
40501;SDS011;29631;49.168;9.848;2023-02-22T12:48:22;3.53;;;3.22;;
40501;SDS011;29631;49.168;9.848;2023-02-22T12:57:20;3.92;;;3.63;;
40501;SDS011;29631;49.168;9.848;2023-02-22T13:00:24;3.25;;;3.05;;
40501;SDS011;29631;49.168;9.848;2023-02-22T13:14:43;3.00;;;2.80;;
40501;SDS011;29631;49.168;9.848;2023-02-22T13:17:39;3.40;;;3.20;;
40501;SDS011;29631;49.168;9.848;2023-02-22T13:20:32;3.28;;;2.83;;
40501;SDS011;29631;49.168;9.848;2023-02-22T13:29:25;4.10;;;3.47;;
40501;SDS011;29631;49.168;9.848;2023-02-22T13:43:51;15.95;;;14.13;;
40501;SDS011;29631;49.168;9.848;2023-02-22T13:49:46;10.95;;;9.85;;
40501;SDS011;29631;49.168;9.848;2023-02-22T13:52:41;20.73;;;18.60;;
40501;SDS011;29631;49.168;9.848;2023-02-22T13:55:14;10.63;;;9.63;;
40501;SDS011;29631;49.168;9.848;2023-02-22T13:57:48;6.43;;;5.93;;
40501;SDS011;29631;49.168;9.848;2023-02-22T14:08:05;29.05;;;25.90;;
40501;SDS011;29631;49.168;9.848;2023-02-22T14:13:15;26.02;;;23.30;;
40501;SDS011;29631;49.168;9.848;2023-02-22T14:18:35;11.80;;;10.68;;
40501;SDS011;29631;49.168;9.848;2023-02-22T14:21:09;7.72;;;7.03;;
40501;SDS011;29631;49.168;9.848;2023-02-22T14:26:26;5.53;;;5.03;;
40501;SDS011;29631;49.168;9.848;2023-02-22T14:34:08;4.32;;;3.95;;
40501;SDS011;29631;49.168;9.848;2023-02-22T14:41:57;4.18;;;3.78;;
40501;SDS011;29631;49.168;9.848;2023-02-22T14:44:50;4.63;;;4.15;;
40501;SDS011;29631;49.168;9.848;2023-02-22T14:50:29;4.53;;;4.13;;
40501;SDS011;29631;49.168;9.848;2023-02-22T14:53:05;4.85;;;4.43;;
40501;SDS011;29631;49.168;9.848;2023-02-22T14:55:51;4.28;;;3.97;;
40501;SDS011;29631;49.168;9.848;2023-02-22T14:58:32;17.50;;;15.63;;
40501;SDS011;29631;49.168;9.848;2023-02-22T15:06:52;5.63;;;4.95;;
40501;SDS011;29631;49.168;9.848;2023-02-22T15:09:21;5.78;;;5.18;;
40501;SDS011;29631;49.168;9.848;2023-02-22T15:11:53;5.10;;;4.70;;
40501;SDS011;29631;49.168;9.848;2023-02-22T15:14:30;5.22;;;4.75;;
40501;SDS011;29631;49.168;9.848;2023-02-22T15:17:02;5.22;;;4.82;;
40501;SDS011;29631;49.168;9.848;2023-02-22T15:19:42;5.68;;;5.07;;
40501;SDS011;29631;49.168;9.848;2023-02-22T15:22:43;6.85;;;4.95;;
40501;SDS011;29631;49.168;9.848;2023-02-22T15:25:05;6.55;;;5.93;;
40501;SDS011;29631;49.168;9.848;2023-02-22T15:27:33;12.10;;;10.90;;
40501;SDS011;29631;49.168;9.848;2023-02-22T15:30:02;9.55;;;8.65;;
40501;SDS011;29631;49.168;9.848;2023-02-22T15:32:39;13.90;;;11.98;;
40501;SDS011;29631;49.168;9.848;2023-02-22T15:35:12;9.60;;;8.70;;
40501;SDS011;29631;49.168;9.848;2023-02-22T15:37:43;8.52;;;7.82;;
40501;SDS011;29631;49.168;9.848;2023-02-22T15:40:15;7.78;;;6.80;;
40501;SDS011;29631;49.168;9.848;2023-02-22T15:42:48;7.43;;;5.65;;
40501;SDS011;29631;49.168;9.848;2023-02-22T15:45:22;6.50;;;5.88;;
40501;SDS011;29631;49.168;9.848;2023-02-22T15:47:49;6.47;;;5.68;;
40501;SDS011;29631;49.168;9.848;2023-02-22T15:52:53;5.57;;;5.07;;
40501;SDS011;29631;49.168;9.848;2023-02-22T15:55:32;5.72;;;5.22;;
40501;SDS011;29631;49.168;9.848;2023-02-22T16:00:48;5.45;;;5.03;;
40501;SDS011;29631;49.168;9.848;2023-02-22T16:06:10;7.95;;;5.40;;
40501;SDS011;29631;49.168;9.848;2023-02-22T16:08:47;6.18;;;5.68;;
40501;SDS011;29631;49.168;9.848;2023-02-22T16:11:26;8.73;;;8.02;;
40501;SDS011;29631;49.168;9.848;2023-02-22T16:14:03;8.38;;;7.57;;
40501;SDS011;29631;49.168;9.848;2023-02-22T16:16:47;6.63;;;6.05;;
40501;SDS011;29631;49.168;9.848;2023-02-22T16:22:03;6.18;;;5.53;;
40501;SDS011;29631;49.168;9.848;2023-02-22T16:24:37;6.13;;;5.53;;
40501;SDS011;29631;49.168;9.848;2023-02-22T16:29:42;5.50;;;5.10;;
40501;SDS011;29631;49.168;9.848;2023-02-22T16:32:24;10.38;;;7.20;;
40501;SDS011;29631;49.168;9.848;2023-02-22T16:34:49;9.90;;;8.90;;
40501;SDS011;29631;49.168;9.848;2023-02-22T16:37:19;13.05;;;10.77;;
40501;SDS011;29631;49.168;9.848;2023-02-22T16:39:46;18.20;;;14.55;;
40501;SDS011;29631;49.168;9.848;2023-02-22T16:42:15;16.52;;;14.93;;
40501;SDS011;29631;49.168;9.848;2023-02-22T16:44:48;15.80;;;14.20;;
40501;SDS011;29631;49.168;9.848;2023-02-22T16:47:15;15.75;;;14.15;;
40501;SDS011;29631;49.168;9.848;2023-02-22T16:49:42;13.07;;;11.82;;
40501;SDS011;29631;49.168;9.848;2023-02-22T16:52:08;12.00;;;10.82;;
40501;SDS011;29631;49.168;9.848;2023-02-22T16:54:41;12.27;;;11.07;;
40501;SDS011;29631;49.168;9.848;2023-02-22T16:57:13;10.40;;;9.50;;
40501;SDS011;29631;49.168;9.848;2023-02-22T16:59:46;10.07;;;9.13;;
40501;SDS011;29631;49.168;9.848;2023-02-22T17:02:15;9.02;;;7.90;;
40501;SDS011;29631;49.168;9.848;2023-02-22T17:04:42;7.40;;;6.80;;
40501;SDS011;29631;49.168;9.848;2023-02-22T17:07:14;7.72;;;7.13;;
40501;SDS011;29631;49.168;9.848;2023-02-22T17:09:42;7.03;;;6.32;;
40501;SDS011;29631;49.168;9.848;2023-02-22T17:12:08;7.03;;;6.32;;
40501;SDS011;29631;49.168;9.848;2023-02-22T17:14:34;7.78;;;7.05;;
40501;SDS011;29631;49.168;9.848;2023-02-22T17:17:00;7.80;;;7.20;;
40501;SDS011;29631;49.168;9.848;2023-02-22T17:19:27;7.75;;;7.07;;
40501;SDS011;29631;49.168;9.848;2023-02-22T17:21:53;8.77;;;7.97;;
40501;SDS011;29631;49.168;9.848;2023-02-22T17:24:20;8.52;;;7.60;;
40501;SDS011;29631;49.168;9.848;2023-02-22T17:26:49;8.48;;;7.78;;
40501;SDS011;29631;49.168;9.848;2023-02-22T17:29:17;9.48;;;8.50;;
40501;SDS011;29631;49.168;9.848;2023-02-22T17:31:42;12.98;;;9.07;;
40501;SDS011;29631;49.168;9.848;2023-02-22T17:34:09;9.75;;;8.75;;
40501;SDS011;29631;49.168;9.848;2023-02-22T17:36:35;9.50;;;8.60;;
40501;SDS011;29631;49.168;9.848;2023-02-22T17:39:01;8.45;;;7.70;;
40501;SDS011;29631;49.168;9.848;2023-02-22T17:41:28;8.60;;;7.82;;
40501;SDS011;29631;49.168;9.848;2023-02-22T17:43:55;7.90;;;7.10;;
40501;SDS011;29631;49.168;9.848;2023-02-22T17:46:22;6.68;;;6.18;;
40501;SDS011;29631;49.168;9.848;2023-02-22T17:48:49;7.30;;;6.60;;
40501;SDS011;29631;49.168;9.848;2023-02-22T17:51:20;8.35;;;7.15;;
40501;SDS011;29631;49.168;9.848;2023-02-22T17:53:48;8.57;;;7.72;;
40501;SDS011;29631;49.168;9.848;2023-02-22T17:56:15;9.60;;;8.63;;
40501;SDS011;29631;49.168;9.848;2023-02-22T17:58:44;8.50;;;7.70;;
40501;SDS011;29631;49.168;9.848;2023-02-22T18:03:54;7.93;;;7.32;;
40501;SDS011;29631;49.168;9.848;2023-02-22T18:06:23;8.90;;;8.00;;